Airfield :
LOGIN :

Register | Disclaimer

   EN    FR    IT 

 










Legend :    VFR   Marginal VFR   IFR   Intensive IFR   Very Intensive IFR
Visi :
Ceiling :
>= 8 km
>= 3000ft
5 to 8 km
1000 to 3000 ft
1500m to 5 km
500 to 1000 ft
800 to 1500m
200 to 500 ft
< 800m
< 200 ft
Symbols :   Thunderstorms  Fog  Heavy snow  Heavy precipitations  Wind > 20 kt
SIGMETs :     Misc.  Thunderstorms  Icing  Turbulence  Mountain Waves  Volcanic Ashes






- Airport Elevation : 405 ft
- IATA code : ODH


EGVO - RAF Odiham

CURRENT METAR :
  • 021924Z 12003KT 9999 FEW012 SCT100 BKN160 15/12 Q1014 TEMPO SCT020 RMK BLU TEMPO WHT

EXPIRED METARs :
  • 021850Z 13004KT 9999 FEW025 SCT120 BKN200 16/12 Q1014 TEMPO SCT020 RMK BLU TEMPO WHT
  • 021821Z 15005KT 9999 FEW030 BKN090 BKN200 16/12 Q1014 NOSIG RMK BLU BLU
  • 021750Z 15006KT 9999 FEW018 SCT060 BKN080 16/12 Q1014 NOSIG RMK BLU BLU
  • 021650Z 13007KT 9999 FEW018 BKN045 16/12 Q1014 NOSIG RMK BLU BLU
  • 021620Z 14006KT 9999 FEW020 SCT045 BKN070 17/12 Q1014 TEMPO 5000 SHRA SCT020 RMK BLU TEMPO WHT

TAF AMD TAF EGVO
Valid from the 02 at 16:00 until the 03 at 03:00 UTC


021638Z 0216/0303 14008KT 9999 SCT045
TEMPO 0216/0220 6000 SHRA SCT020
PROB30
TEMPO 0216/0219 3000 +SHRA SCT018CB
PROB40 0300/0303 7000 HZ



MET'MAP, your aeronautical weather chart ! - Copyright ORBIFLY December 2007 - Disclaimer

ORBIFLY MET'MAP TEAM :

Programming & Development : Alexandra Zaïnal
Concept & original design : Baudouin d'Aumeries
Assistance for programming : Marc-Olivier Méhu
Technical & hardware support : Manuel Goepfert

Contact : metmap@orbifly.com




SOURCES & CREDITS :

   NOAA